Time;durP1;ratioP1;P1;durP2;ratioP2;P2;SDS_P1;SDS_P2;PMS_P1;PMS_P2;Temp;Humidity;BMP_temperature;BMP_pressure;BME280_temperature;BME280_humidity;BME280_pressure;Samples;Min_cycle;Max_cycle;Signal;HPM_P1;HPM_P2
2023/01/20 00:01:16;;;;;;;3.85;2.50;;;;;;;4.08;100.00;99166.47;6270709;28;20037;-82
2023/01/20 00:04:19;;;;;;;4.30;2.45;;;;;;;4.14;100.00;99162.72;6270361;28;20072;-82
2023/01/20 00:07:20;;;;;;;4.25;2.65;;;;;;;4.22;100.00;99173.53;6270260;28;20090;-83
2023/01/20 00:10:21;;;;;;;2.15;1.95;;;;;;;4.23;100.00;99190.69;6270301;28;20040;-83
2023/01/20 00:13:22;;;;;;;3.03;1.90;;;;;;;4.15;100.00;99185.91;6270269;28;20481;-87
2023/01/20 00:16:23;;;;;;;3.72;2.08;;;;;;;4.29;100.00;99190.41;6270252;28;20049;-87
2023/01/20 00:19:26;;;;;;;7.73;3.77;;;;;;;4.35;100.00;99207.34;6270315;28;20052;-87
2023/01/20 00:22:27;;;;;;;8.68;3.33;;;;;;;4.29;100.00;99203.31;6270113;28;20033;-87
2023/01/20 00:25:29;;;;;;;5.30;2.63;;;;;;;4.20;100.00;99196.00;6269971;28;20468;-83
2023/01/20 00:28:33;;;;;;;7.55;3.25;;;;;;;4.17;100.00;99186.66;6275019;28;20538;-82
2023/01/20 00:31:35;;;;;;;11.93;4.45;;;;;;;4.06;100.00;99188.09;6274689;28;20047;-87
2023/01/20 00:34:36;;;;;;;6.68;2.70;;;;;;;4.06;100.00;99170.88;6274908;28;20386;-87
2023/01/20 00:37:37;;;;;;;7.05;4.00;;;;;;;4.14;100.00;99180.81;6276245;28;20428;-82
2023/01/20 00:40:37;;;;;;;9.52;3.88;;;;;;;4.06;100.00;99177.75;6275062;28;20041;-87
2023/01/20 00:43:38;;;;;;;6.90;2.70;;;;;;;4.10;100.00;99189.59;6274589;28;20123;-82
2023/01/20 00:46:39;;;;;;;3.88;3.22;;;;;;;4.09;100.00;99185.38;6274534;28;20076;-83
2023/01/20 00:49:40;;;;;;;7.40;4.47;;;;;;;4.00;100.00;99184.06;6274806;28;20060;-83
2023/01/20 00:52:41;;;;;;;13.27;3.55;;;;;;;4.00;100.00;99190.06;6274215;28;20056;-88
2023/01/20 00:55:42;;;;;;;6.32;2.75;;;;;;;4.02;100.00;99179.66;6307863;28;20041;-87
2023/01/20 00:58:44;;;;;;;6.43;3.28;;;;;;;4.06;100.00;99183.78;6274464;28;20401;-82
2023/01/20 01:01:45;;;;;;;6.47;3.80;;;;;;;4.07;100.00;99184.59;6275182;28;20072;-83
2023/01/20 01:04:49;;;;;;;5.78;3.30;;;;;;;4.10;100.00;99181.88;6274112;28;20071;-88
2023/01/20 01:07:50;;;;;;;5.65;2.95;;;;;;;4.16;100.00;99189.31;6275006;28;20111;-83
2023/01/20 01:10:54;;;;;;;5.68;3.33;;;;;;;4.14;100.00;99193.72;6273672;28;20045;-88
2023/01/20 01:13:56;;;;;;;5.00;3.08;;;;;;;4.17;100.00;99206.50;6273940;28;20041;-87
2023/01/20 01:16:57;;;;;;;7.00;3.63;;;;;;;4.14;100.00;99194.56;6273762;28;20052;-83
2023/01/20 01:19:57;;;;;;;5.13;3.33;;;;;;;4.11;100.00;99186.97;6274892;28;20288;-87
2023/01/20 01:22:58;;;;;;;8.23;3.88;;;;;;;4.12;100.00;99185.19;6273990;28;20075;-83
2023/01/20 01:26:01;;;;;;;4.30;3.45;;;;;;;4.04;100.00;99176.09;6273597;28;20045;-83
2023/01/20 01:29:02;;;;;;;6.15;3.35;;;;;;;4.11;100.00;99181.78;6274921;28;20040;-87
2023/01/20 01:32:03;;;;;;;4.55;3.20;;;;;;;4.11;100.00;99178.38;6273581;28;20041;-87
2023/01/20 01:35:04;;;;;;;5.30;3.05;;;;;;;4.04;100.00;99183.84;6274135;28;20040;-87
2023/01/20 01:38:05;;;;;;;8.18;3.65;;;;;;;4.04;100.00;99177.84;6272342;28;20064;-87
2023/01/20 01:41:06;;;;;;;5.32;3.38;;;;;;;4.03;100.00;99181.31;6273213;28;20044;-87
2023/01/20 01:44:10;;;;;;;4.47;3.03;;;;;;;4.01;100.00;99181.41;6273323;28;20045;-82
2023/01/20 01:47:11;;;;;;;5.28;3.10;;;;;;;4.00;100.00;99184.06;6274367;28;20512;-82
2023/01/20 01:50:20;;;;;;;4.70;2.88;;;;;;;3.95;100.00;99180.84;6274299;28;20065;-82
2023/01/20 01:53:21;;;;;;;5.45;3.53;;;;;;;3.92;100.00;99179.25;6272781;28;20061;-82
2023/01/20 01:56:26;;;;;;;3.60;2.83;;;;;;;3.82;100.00;99178.03;6274112;28;20049;-83
2023/01/20 01:59:27;;;;;;;6.97;2.90;;;;;;;3.93;100.00;99191.28;6274159;28;20386;-82
2023/01/20 02:02:28;;;;;;;5.25;2.97;;;;;;;3.95;100.00;99184.28;6272694;28;20147;-82
2023/01/20 02:05:29;;;;;;;3.83;2.45;;;;;;;3.97;100.00;99185.03;6272431;28;20047;-83
2023/01/20 02:08:33;;;;;;;5.25;3.58;;;;;;;3.95;100.00;99167.94;6273720;28;20057;-82
2023/01/20 02:11:39;;;;;;;6.57;3.65;;;;;;;4.06;100.00;99168.28;6272736;28;20049;-82
2023/01/20 02:14:44;;;;;;;7.05;3.67;;;;;;;4.12;100.00;99172.28;6273809;28;20052;-87
2023/01/20 02:17:52;;;;;;;5.68;3.25;;;;;;;4.12;100.00;99160.25;6272374;28;20515;-82
2023/01/20 02:21:23;;;;;;;5.07;3.58;;;;;;;4.09;100.00;99155.22;6273708;28;20041;-82
2023/01/20 02:25:02;;;;;;;8.05;4.15;;;;;;;4.00;100.00;99151.34;6272159;28;20094;-82
2023/01/20 02:28:06;;;;;;;6.88;3.63;;;;;;;3.96;100.00;99149.81;6272298;28;20489;-87
2023/01/20 02:31:12;;;;;;;7.18;4.30;;;;;;;4.01;100.00;99136.69;6272310;28;20425;-87
2023/01/20 02:34:27;;;;;;;6.18;3.83;;;;;;;3.94;100.00;99136.16;6273271;28;20485;-87
2023/01/20 02:37:39;;;;;;;5.97;3.85;;;;;;;3.90;100.00;99134.63;6271907;28;20118;-87
2023/01/20 02:40:46;;;;;;;6.90;3.50;;;;;;;3.88;100.00;99120.13;6271952;28;20048;-82
2023/01/20 02:43:59;;;;;;;5.93;3.35;;;;;;;3.73;100.00;99101.06;6273098;28;20405;-87
2023/01/20 02:47:08;;;;;;;4.32;3.03;;;;;;;3.79;100.00;99078.38;6271735;28;20478;-87
2023/01/20 02:50:18;;;;;;;4.63;3.42;;;;;;;3.63;100.00;99073.13;6272774;28;20072;-87
2023/01/20 02:53:21;;;;;;;9.13;3.75;;;;;;;3.56;100.00;99065.75;6271482;28;20080;-82
2023/01/20 02:56:27;;;;;;;8.50;4.20;;;;;;;3.66;100.00;99079.03;6271486;28;20045;-82
2023/01/20 02:59:35;;;;;;;7.05;3.65;;;;;;;3.79;100.00;99088.69;6271669;28;20033;-87
2023/01/20 03:02:40;;;;;;;8.38;4.38;;;;;;;3.88;100.00;99089.16;6271802;28;20041;-88
2023/01/20 03:05:48;;;;;;;9.77;4.72;;;;;;;3.88;100.00;99092.56;6271202;28;20489;-87
2023/01/20 03:08:51;;;;;;;9.98;5.05;;;;;;;3.91;100.00;99096.75;6272626;28;20039;-82
2023/01/20 03:11:57;;;;;;;6.65;4.25;;;;;;;3.73;100.00;99107.06;6272463;28;20175;-82
2023/01/20 03:14:58;;;;;;;11.48;5.07;;;;;;;3.70;100.00;99104.59;6270956;28;20044;-82
2023/01/20 03:17:59;;;;;;;10.90;4.53;;;;;;;3.74;100.00;99108.72;6272391;28;20052;-82
2023/01/20 03:21:03;;;;;;;8.95;4.82;;;;;;;3.86;100.00;99106.47;6271211;28;20068;-82
2023/01/20 03:24:05;;;;;;;8.93;4.93;;;;;;;3.97;100.00;99111.94;6271044;28;20406;-82
2023/01/20 03:27:05;;;;;;;5.90;3.83;;;;;;;3.91;100.00;99114.81;6271042;28;20037;-87
2023/01/20 03:30:15;;;;;;;6.28;4.15;;;;;;;3.96;100.00;99108.53;6270951;28;20041;-88
2023/01/20 03:33:16;;;;;;;8.02;4.10;;;;;;;3.86;100.00;99112.47;6270845;28;20052;-87
2023/01/20 03:36:22;;;;;;;7.93;3.90;;;;;;;3.76;100.00;99118.97;6270811;28;20404;-87
2023/01/20 03:39:24;;;;;;;6.40;3.72;;;;;;;3.77;100.00;99105.19;6270673;28;20545;-87
2023/01/20 03:42:33;;;;;;;10.65;5.00;;;;;;;3.70;100.00;99098.63;6270687;28;20128;-88
2023/01/20 03:45:53;;;;;;;6.78;3.47;;;;;;;3.89;100.00;99114.91;6271258;28;20045;-83
2023/01/20 03:49:05;;;;;;;4.45;3.05;;;;;;;3.83;100.00;99110.88;6270565;28;20094;-87
2023/01/20 03:52:18;;;;;;;5.10;3.47;;;;;;;3.79;100.00;99113.69;6270658;28;20033;-87
2023/01/20 03:55:34;;;;;;;10.77;4.32;;;;;;;3.80;100.00;99112.75;6270600;28;20041;-87
2023/01/20 03:58:40;;;;;;;6.80;4.00;;;;;;;3.79;100.00;99093.88;6270685;28;20061;-87
2023/01/20 04:01:43;;;;;;;10.68;5.28;;;;;;;3.83;100.00;99087.66;6271728;28;20040;-87
2023/01/20 04:04:47;;;;;;;9.48;3.80;;;;;;;3.81;100.00;99111.88;6276061;28;20481;-87
2023/01/20 04:07:49;;;;;;;7.20;4.78;;;;;;;3.82;100.00;99093.69;6275765;28;20051;-87
2023/01/20 04:10:51;;;;;;;4.22;3.67;;;;;;;3.92;100.00;99094.09;6275788;28;20414;-87
2023/01/20 04:13:52;;;;;;;9.02;4.70;;;;;;;4.00;100.00;99093.72;6276760;28;20112;-87
2023/01/20 04:16:58;;;;;;;8.45;4.50;;;;;;;3.80;100.00;99111.00;6275133;28;20083;-87
2023/01/20 04:20:05;;;;;;;7.13;3.67;;;;;;;3.83;100.00;99107.47;6274964;28;20053;-87
2023/01/20 04:23:12;;;;;;;6.80;3.72;;;;;;;3.77;100.00;99106.00;6274977;28;20044;-82
2023/01/20 04:26:13;;;;;;;7.55;3.60;;;;;;;3.80;100.00;99105.00;6276178;28;20049;-87
2023/01/20 04:29:14;;;;;;;4.60;3.38;;;;;;;3.74;100.00;99098.41;6276349;28;20037;-87
2023/01/20 04:32:14;;;;;;;10.07;4.22;;;;;;;3.63;100.00;99086.03;6274885;28;20037;-82
2023/01/20 04:35:20;;;;;;;11.30;4.72;;;;;;;3.79;100.00;99103.34;6275885;28;20456;-82
2023/01/20 04:38:22;;;;;;;9.68;5.32;;;;;;;3.71;100.00;99095.97;6274778;28;20049;-82
2023/01/20 04:41:22;;;;;;;7.93;4.22;;;;;;;3.49;100.00;99095.31;6275888;28;20119;-83
2023/01/20 04:44:23;;;;;;;6.57;3.70;;;;;;;3.22;100.00;99091.38;6274525;28;20041;-82
2023/01/20 04:47:24;;;;;;;4.75;3.10;;;;;;;3.33;100.00;99084.88;6275558;28;20037;-82
2023/01/20 04:50:25;;;;;;;5.95;3.78;;;;;;;3.41;100.00;99093.09;6274246;28;20448;-82
2023/01/20 04:53:25;;;;;;;22.00;3.53;;;;;;;3.50;100.00;99099.56;6274207;28;20049;-87
2023/01/20 04:56:26;;;;;;;5.03;3.00;;;;;;;3.47;100.00;99090.22;6275294;28;20041;-87
2023/01/20 04:59:27;;;;;;;6.85;3.83;;;;;;;3.46;100.00;99080.84;6273132;28;20045;-83
2023/01/20 05:02:28;;;;;;;8.00;4.18;;;;;;;3.46;100.00;99077.41;6274616;28;20055;-82
2023/01/20 05:05:29;;;;;;;5.45;3.05;;;;;;;3.53;100.00;99086.53;6274813;28;20120;-81
2023/01/20 05:08:29;;;;;;;7.88;3.80;;;;;;;3.52;100.00;99069.38;6274674;28;20120;-82
2023/01/20 05:11:30;;;;;;;4.82;3.65;;;;;;;3.46;100.00;99056.78;6275727;28;20098;-82
2023/01/20 05:14:31;;;;;;;7.80;4.80;;;;;;;3.36;100.00;99062.38;6274880;28;20393;-82
2023/01/20 05:17:32;;;;;;;5.60;3.50;;;;;;;3.25;100.00;99063.78;6274153;28;20045;-87
2023/01/20 05:20:33;;;;;;;6.55;3.88;;;;;;;3.48;100.00;99066.13;6273922;28;20037;-82
2023/01/20 05:23:34;;;;;;;3.95;3.08;;;;;;;3.49;100.00;99075.53;6273854;28;20041;-83
2023/01/20 05:26:34;;;;;;;5.93;3.72;;;;;;;3.41;100.00;99072.47;6273321;28;20069;-82
2023/01/20 05:29:35;;;;;;;6.57;4.28;;;;;;;3.47;100.00;99079.91;6273627;28;20037;-87
2023/01/20 05:32:36;;;;;;;6.82;4.65;;;;;;;3.35;100.00;99077.91;6273440;28;20129;-83
2023/01/20 05:35:37;;;;;;;7.80;4.22;;;;;;;3.45;100.00;99078.31;6273551;28;20044;-82
2023/01/20 05:38:38;;;;;;;5.85;3.38;;;;;;;3.51;100.00;99083.19;6273251;28;20043;-82
2023/01/20 05:41:39;;;;;;;7.05;3.85;;;;;;;3.56;100.00;99087.22;6273671;28;20045;-82
2023/01/20 05:44:40;;;;;;;6.63;4.28;;;;;;;3.61;100.00;99085.25;6273343;28;20037;-82
2023/01/20 05:47:41;;;;;;;5.75;4.05;;;;;;;3.49;100.00;99083.25;6274107;28;20045;-82
2023/01/20 05:50:42;;;;;;;11.93;3.60;;;;;;;3.50;100.00;99064.31;6273694;28;20131;-86
2023/01/20 05:53:42;;;;;;;4.80;2.97;;;;;;;3.50;100.00;99059.16;6273295;28;20079;-83
2023/01/20 05:56:43;;;;;;;4.55;2.72;;;;;;;3.26;100.00;99053.41;6272588;28;20120;-86
2023/01/20 05:59:48;;;;;;;5.57;3.35;;;;;;;3.30;100.00;99042.03;6272822;28;20056;-86
2023/01/20 06:02:49;;;;;;;4.15;2.60;;;;;;;3.47;100.00;99071.34;6272816;28;20120;-86
2023/01/20 06:05:50;;;;;;;3.80;2.20;;;;;;;3.32;100.00;99065.19;6273830;28;20504;-83
2023/01/20 06:08:52;;;;;;;4.32;2.78;;;;;;;3.33;100.00;99069.41;6272616;28;20037;-86
2023/01/20 06:11:52;;;;;;;3.88;2.22;;;;;;;3.43;100.00;99061.16;6273794;28;20041;-83
2023/01/20 06:14:55;;;;;;;3.15;2.30;;;;;;;3.39;100.00;99045.91;6272192;28;20045;-83
2023/01/20 06:17:56;;;;;;;2.50;1.88;;;;;;;3.18;100.00;99064.06;6273354;28;20124;-83
2023/01/20 06:20:57;;;;;;;5.63;2.85;;;;;;;3.42;100.00;99076.72;6273586;28;20043;-86
2023/01/20 06:23:58;;;;;;;2.60;2.05;;;;;;;3.31;100.00;99073.81;6272028;28;20045;-83
2023/01/20 06:27:01;;;;;;;2.25;1.52;;;;;;;3.33;100.00;99070.25;6273249;28;20401;-86
2023/01/20 06:30:04;;;;;;;3.08;2.10;;;;;;;3.43;100.00;99083.53;6272285;28;20041;-86
2023/01/20 06:33:09;;;;;;;2.50;1.85;;;;;;;3.11;100.00;99070.44;6272010;28;20508;-86
2023/01/20 06:36:12;;;;;;;3.05;2.10;;;;;;;3.18;100.00;99087.28;6273595;28;20049;-86
2023/01/20 06:39:15;;;;;;;2.33;1.83;;;;;;;3.39;100.00;99082.84;6271965;28;20603;-86
2023/01/20 06:42:16;;;;;;;3.72;1.83;;;;;;;3.31;100.00;99066.06;6272457;28;20033;-86
2023/01/20 06:45:17;;;;;;;2.95;2.10;;;;;;;3.32;100.00;99047.13;6271659;28;20043;-86
2023/01/20 06:48:18;;;;;;;3.65;2.30;;;;;;;3.46;100.00;99049.88;6272193;28;20036;-86
2023/01/20 06:51:19;;;;;;;2.28;1.13;;;;;;;3.37;100.00;99033.09;6272199;28;20045;-82
2023/01/20 06:54:20;;;;;;;2.50;1.85;;;;;;;3.30;100.00;99020.59;6271786;28;20053;-86
2023/01/20 06:57:21;;;;;;;2.50;2.17;;;;;;;3.17;100.00;99017.72;6271989;28;20040;-86
2023/01/20 07:00:22;;;;;;;4.43;3.13;;;;;;;3.30;100.00;99015.44;6271525;28;20045;-86
2023/01/20 07:03:23;;;;;;;2.88;2.13;;;;;;;3.23;100.00;99022.59;6271460;28;20045;-82
2023/01/20 07:06:30;;;;;;;4.90;2.28;;;;;;;3.36;100.00;99030.59;6272370;28;20033;-86
2023/01/20 07:09:34;;;;;;;2.50;1.98;;;;;;;3.13;100.00;99024.78;6272255;28;20045;-82
2023/01/20 07:12:34;;;;;;;2.45;2.05;;;;;;;3.16;100.00;99018.66;6271062;28;20037;-82
2023/01/20 07:15:35;;;;;;;2.50;1.92;;;;;;;3.18;100.00;99022.81;6271582;28;20052;-82
2023/01/20 07:18:39;;;;;;;3.28;1.70;;;;;;;3.22;100.00;99026.94;6271909;28;20040;-83
2023/01/20 07:21:40;;;;;;;2.80;1.15;;;;;;;3.18;100.00;99011.69;6270949;28;20067;-82
2023/01/20 07:24:40;;;;;;;3.45;1.98;;;;;;;3.20;100.00;99005.53;6271998;28;20044;-82
2023/01/20 07:27:41;;;;;;;2.65;2.00;;;;;;;3.25;100.00;99005.31;6270580;28;20045;-86
2023/01/20 07:30:42;;;;;;;3.15;2.10;;;;;;;3.33;100.00;98992.88;6271811;28;20476;-85
2023/01/20 07:33:47;;;;;;;4.95;2.60;;;;;;;3.21;100.00;99002.06;6272109;28;20037;-86
2023/01/20 07:36:51;;;;;;;2.35;2.00;;;;;;;3.38;100.00;98998.69;6271729;28;20448;-83
2023/01/20 07:39:51;;;;;;;4.13;2.83;;;;;;;3.36;100.00;98999.66;6270745;28;20090;-83
2023/01/20 07:42:52;;;;;;;3.83;2.22;;;;;;;3.37;100.00;98991.00;6271868;28;20041;-82
2023/01/20 07:46:03;;;;;;;2.55;2.17;;;;;;;3.33;100.00;98989.47;6270549;28;20443;-82
2023/01/20 07:49:04;;;;;;;3.30;2.80;;;;;;;3.55;100.00;98992.69;6271662;28;20493;-85
2023/01/20 07:52:07;;;;;;;2.20;1.85;;;;;;;3.49;100.00;98995.56;6270350;28;20041;-82
2023/01/20 07:55:08;;;;;;;4.45;2.33;;;;;;;3.46;100.00;98993.16;6270746;28;20068;-86
2023/01/20 07:58:11;;;;;;;1.83;1.63;;;;;;;3.32;100.00;99006.72;6270348;28;20111;-85
2023/01/20 08:01:15;;;;;;;1.80;1.33;;;;;;;3.46;100.00;99007.78;6270333;28;20041;-86
2023/01/20 08:04:17;;;;;;;3.60;2.10;;;;;;;3.66;100.00;99005.06;6270618;28;20049;-86
2023/01/20 08:07:18;;;;;;;3.97;2.25;;;;;;;3.72;100.00;98999.59;6270144;28;20064;-86
2023/01/20 08:10:18;;;;;;;1.95;1.48;;;;;;;3.81;100.00;99003.47;6270287;28;20045;-86
2023/01/20 08:13:19;;;;;;;2.78;1.77;;;;;;;3.64;100.00;99006.88;6271397;28;20036;-82
2023/01/20 08:16:20;;;;;;;7.65;2.65;;;;;;;3.86;100.00;98996.31;6271274;28;20041;-82
2023/01/20 08:19:21;;;;;;;3.90;2.70;;;;;;;3.69;100.00;99009.25;6269796;28;20033;-86
2023/01/20 08:22:24;;;;;;;6.10;1.95;;;;;;;3.50;100.00;98996.41;6271738;28;20037;-86
2023/01/20 08:25:25;;;;;;;2.30;1.60;;;;;;;3.55;100.00;99005.59;6271593;28;20072;-82
2023/01/20 08:28:25;;;;;;;5.78;2.05;;;;;;;3.56;100.00;99006.41;6270052;28;20045;-85
2023/01/20 08:31:28;;;;;;;8.43;2.85;;;;;;;3.70;100.00;99016.88;6270146;28;20037;-86
2023/01/20 08:34:30;;;;;;;2.70;2.35;;;;;;;3.59;100.00;98994.22;6271100;28;20037;-81
2023/01/20 08:37:30;;;;;;;2.03;1.63;;;;;;;3.54;100.00;98987.59;6270221;28;20048;-87
2023/01/20 08:40:31;;;;;;;3.38;2.42;;;;;;;3.70;100.00;98977.38;6270137;28;20036;-82
2023/01/20 08:43:32;;;;;;;1.98;1.60;;;;;;;3.43;100.00;98965.75;6270078;28;20037;-87
2023/01/20 08:46:34;;;;;;;8.35;2.00;;;;;;;3.40;100.00;98955.59;6269578;28;20817;-82
2023/01/20 08:49:34;;;;;;;3.17;1.77;;;;;;;3.39;100.00;98964.22;6274727;28;20120;-82
2023/01/20 08:52:35;;;;;;;2.30;1.38;;;;;;;3.44;100.00;98961.44;6274192;28;20053;-81
2023/01/20 08:55:36;;;;;;;5.20;1.98;;;;;;;3.51;100.00;98962.78;6274213;28;20052;-81
2023/01/20 08:58:37;;;;;;;3.30;2.38;;;;;;;3.49;100.00;98979.25;6275026;28;20037;-81
2023/01/20 09:01:42;;;;;;;4.15;2.20;;;;;;;3.48;100.00;98970.69;6274369;28;20124;-87
2023/01/20 09:04:43;;;;;;;1.98;1.52;;;;;;;3.32;100.00;98967.19;6275469;28;20041;-81
2023/01/20 09:07:44;;;;;;;2.55;1.83;;;;;;;3.18;100.00;98962.69;6273905;28;20562;-82
2023/01/20 09:10:45;;;;;;;4.75;2.78;;;;;;;3.23;100.00;98948.69;6275000;28;20075;-81
2023/01/20 09:13:46;;;;;;;5.75;2.47;;;;;;;3.30;100.00;98950.97;6273844;28;20333;-81
2023/01/20 09:16:47;;;;;;;2.10;1.23;;;;;;;2.97;100.00;98939.63;6273901;28;20065;-82
2023/01/20 09:19:48;;;;;;;2.47;2.03;;;;;;;2.99;100.00;98947.28;6273662;28;20398;-87
2023/01/20 09:22:49;;;;;;;5.47;2.45;;;;;;;2.93;100.00;98926.97;6274975;28;20167;-87
2023/01/20 09:25:50;;;;;;;5.07;2.42;;;;;;;3.13;100.00;98939.72;6273527;28;20048;-88
2023/01/20 09:28:50;;;;;;;5.40;2.53;;;;;;;3.16;100.00;98921.53;6273604;28;20120;-87
2023/01/20 09:32:00;;;;;;;6.78;3.10;;;;;;;3.29;100.00;98937.22;6274759;28;20041;-88
2023/01/20 09:35:01;;;;;;;3.22;1.85;;;;;;;3.28;100.00;98938.16;6273487;28;20400;-88
2023/01/20 09:45:21;;;;;;;5.87;2.37;;;;;;;3.23;100.00;98928.06;6274421;28;20519;-82
2023/01/20 09:56:10;;;;;;;5.78;3.17;;;;;;;2.94;100.00;98919.13;6274282;28;20360;-87
2023/01/20 09:59:23;;;;;;;6.22;3.25;;;;;;;2.89;100.00;98907.41;6272008;28;20041;-87
2023/01/20 10:02:34;;;;;;;5.03;2.17;;;;;;;2.97;100.00;98897.56;6273864;28;20087;-81
2023/01/20 10:05:41;;;;;;;4.47;1.90;;;;;;;2.87;100.00;98899.75;6272691;28;20037;-82
2023/01/20 10:08:57;;;;;;;2.90;1.92;;;;;;;2.91;100.00;98880.66;6274074;28;20037;-87
2023/01/20 10:12:06;;;;;;;7.57;3.10;;;;;;;3.11;100.00;98886.56;6272393;28;20386;-87
2023/01/20 10:15:32;;;;;;;4.43;3.08;;;;;;;3.01;100.00;98887.03;6272509;28;20489;-87
2023/01/20 10:18:44;;;;;;;2.95;1.90;;;;;;;2.94;100.00;98879.66;6273414;28;20048;-87
2023/01/20 10:21:52;;;;;;;;;;;;;;;3.03;100.00;98887.78;6274219;28;20452;-88
2023/01/20 10:25:07;;;;;;;3.88;1.70;;;;;;;2.78;100.00;98880.41;6273118;28;19927;-87
2023/01/20 10:28:13;;;;;;;4.38;2.08;;;;;;;2.97;100.00;98882.94;6272530;28;20405;-88
2023/01/20 10:31:20;;;;;;;3.17;2.65;;;;;;;3.00;100.00;98872.47;6271780;28;20405;-81
2023/01/20 10:34:21;;;;;;;2.63;1.65;;;;;;;3.05;100.00;98858.50;6272193;28;20048;-81
2023/01/20 10:37:23;;;;;;;3.53;2.30;;;;;;;2.95;100.00;98871.88;6271803;28;20049;-81
2023/01/20 10:40:43;;;;;;;5.97;3.30;;;;;;;2.95;100.00;98861.56;6272867;28;20041;-88
2023/01/20 10:43:46;;;;;;;1.50;1.40;;;;;;;2.89;100.00;98861.03;6272943;28;20040;-88
2023/01/20 10:47:05;;;;;;;6.15;3.00;;;;;;;2.98;100.00;98865.72;6272706;28;20041;-88
2023/01/20 10:50:15;;;;;;;2.78;1.77;;;;;;;2.97;100.00;98857.16;6272882;28;20500;-87
2023/01/20 10:53:46;;;;;;;9.63;3.45;;;;;;;3.06;100.00;98852.47;6271330;28;20408;-81
2023/01/20 10:56:53;;;;;;;6.22;2.35;;;;;;;3.11;100.00;98855.63;6271541;28;20041;-81
2023/01/20 11:00:24;;;;;;;3.83;2.85;;;;;;;2.98;100.00;98845.94;6271442;28;20504;-82
2023/01/20 11:03:29;;;;;;;2.97;1.73;;;;;;;2.92;100.00;98842.81;6271457;28;20144;-81
2023/01/20 11:06:34;;;;;;;2.53;2.05;;;;;;;2.88;100.00;98849.88;6271427;28;20064;-81
2023/01/20 11:09:36;;;;;;;3.95;2.30;;;;;;;2.93;100.00;98836.78;6272393;28;20041;-81
2023/01/20 11:12:40;;;;;;;4.30;2.42;;;;;;;3.15;100.00;98834.81;6271141;28;20482;-86
2023/01/20 11:15:54;;;;;;;8.23;3.25;;;;;;;2.96;100.00;98816.81;6272705;28;20069;-81
2023/01/20 11:19:04;;;;;;;5.80;2.55;;;;;;;2.90;100.00;98814.56;6271167;28;20469;-81
2023/01/20 11:22:13;;;;;;;2.28;2.00;;;;;;;3.07;100.00;98810.31;6271924;28;20036;-88
2023/01/20 11:25:26;;;;;;;2.92;2.38;;;;;;;3.09;100.00;98806.75;6272110;28;20037;-82
2023/01/20 11:28:35;;;;;;;20.98;2.70;;;;;;;2.96;100.00;98788.47;6270785;28;20562;-87
2023/01/20 11:31:41;;;;;;;4.43;2.00;;;;;;;3.11;100.00;98794.63;6272023;28;20449;-88
2023/01/20 11:34:48;;;;;;;5.10;2.78;;;;;;;3.10;100.00;98799.84;6270647;28;20115;-82
2023/01/20 11:37:50;;;;;;;2.83;2.25;;;;;;;3.16;100.00;98802.13;6271983;28;20044;-87
2023/01/20 11:40:53;;;;;;;4.07;2.28;;;;;;;3.02;100.00;98787.34;6270444;28;20044;-82
2023/01/20 11:43:56;;;;;;;4.43;3.25;;;;;;;2.95;100.00;98789.41;6271875;28;20076;-87
2023/01/20 11:47:14;;;;;;;5.20;2.17;;;;;;;2.89;100.00;98776.00;6270706;28;20041;-87
2023/01/20 11:50:29;;;;;;;2.92;2.05;;;;;;;3.11;100.00;98779.16;6270507;28;20045;-88
2023/01/20 11:53:32;;;;;;;3.88;2.05;;;;;;;3.11;100.00;98778.31;6271698;28;20061;-82
2023/01/20 11:56:40;;;;;;;4.47;2.17;;;;;;;3.01;100.00;98771.06;6270441;28;20045;-82
2023/01/20 11:59:48;;;;;;;3.85;2.45;;;;;;;2.89;100.00;98776.00;6270622;28;20037;-88
2023/01/20 12:02:59;;;;;;;5.20;2.92;;;;;;;2.93;100.00;98769.78;6270163;28;20128;-82
2023/01/20 12:06:17;;;;;;;6.72;2.83;;;;;;;2.85;100.00;98769.34;6271341;28;20440;-82
2023/01/20 12:09:28;;;;;;;3.08;2.13;;;;;;;2.85;100.00;98772.75;6270460;28;20071;-87
2023/01/20 12:12:39;;;;;;;7.72;2.33;;;;;;;2.96;100.00;98767.03;6271645;28;20136;-87
2023/01/20 12:15:43;;;;;;;7.43;2.90;;;;;;;3.00;100.00;98764.22;6270435;28;20124;-82
2023/01/20 12:18:52;;;;;;;1.33;1.08;;;;;;;2.89;100.00;98761.38;6270275;28;20049;-82
2023/01/20 12:21:57;;;;;;;6.85;3.60;;;;;;;3.12;100.00;98761.94;6270224;28;20040;-82
2023/01/20 12:25:13;;;;;;;6.00;3.30;;;;;;;3.05;100.00;98752.84;6274713;28;20180;-82
2023/01/20 12:28:21;;;;;;;4.68;1.88;;;;;;;3.07;100.00;98757.03;6276214;28;20075;-86
2023/01/20 12:31:23;;;;;;;4.03;2.20;;;;;;;3.13;100.00;98756.72;6274881;28;20154;-82
2023/01/20 12:34:27;;;;;;;4.10;2.17;;;;;;;2.97;100.00;98745.53;6275143;28;20037;-86
2023/01/20 12:37:41;;;;;;;2.30;2.08;;;;;;;3.03;100.00;98735.75;6276326;28;20049;-86
2023/01/20 12:40:51;;;;;;;5.80;3.25;;;;;;;2.98;100.00;98722.25;6276460;28;20049;-87
2023/01/20 12:43:59;;;;;;;7.53;2.50;;;;;;;3.10;100.00;98738.81;6275388;28;20128;-82
2023/01/20 12:47:25;;;;;;;4.15;2.17;;;;;;;3.02;100.00;98728.91;6274501;28;20120;-82
2023/01/20 12:50:32;;;;;;;4.35;2.38;;;;;;;3.11;100.00;98731.91;6275740;28;20041;-83
2023/01/20 12:54:01;;;;;;;7.10;2.78;;;;;;;2.98;100.00;98722.25;6275836;28;20131;-82
2023/01/20 12:57:11;;;;;;;4.97;2.20;;;;;;;3.01;100.00;98737.56;6274185;28;20072;-87
2023/01/20 13:00:12;;;;;;;15.85;2.45;;;;;;;3.10;100.00;98733.66;6274529;28;20069;-87
2023/01/20 13:03:40;;;;;;;5.15;2.22;;;;;;;3.09;100.00;98724.28;6275426;28;20045;-87
2023/01/20 13:06:47;;;;;;;2.40;2.20;;;;;;;3.16;100.00;98733.34;6275649;28;20075;-88
2023/01/20 13:10:13;;;;;;;2.28;2.05;;;;;;;3.12;100.00;98738.75;6274233;28;20481;-87
2023/01/20 13:13:44;;;;;;;8.23;2.95;;;;;;;3.36;100.00;98747.78;6273757;28;20503;-83
2023/01/20 13:17:11;;;;;;;3.55;2.13;;;;;;;3.32;100.00;98737.72;6275960;28;20103;-83
2023/01/20 13:20:25;;;;;;;1.70;1.27;;;;;;;3.11;100.00;98731.91;6266608;28;20041;-83
2023/01/20 13:23:36;;;;;;;3.22;2.40;;;;;;;3.24;100.00;98753.59;6263863;28;20131;-82
2023/01/20 13:26:37;;;;;;;3.92;2.35;;;;;;;3.09;100.00;98733.75;6272096;28;20045;-82
2023/01/20 13:29:50;;;;;;;4.18;2.08;;;;;;;3.32;100.00;98759.19;6274895;28;20037;-87
2023/01/20 13:33:02;;;;;;;2.03;1.70;;;;;;;3.13;100.00;98751.56;6273725;28;20045;-82
2023/01/20 13:36:17;;;;;;;10.57;2.38;;;;;;;3.21;100.00;98748.56;6271985;28;20045;-82
2023/01/20 13:39:38;;;;;;;3.55;2.63;;;;;;;3.15;100.00;98746.31;6273400;28;20043;-83
2023/01/20 13:42:39;;;;;;;9.98;2.80;;;;;;;3.29;100.00;98749.00;6274249;28;20060;-82
2023/01/20 13:45:42;;;;;;;2.88;1.98;;;;;;;3.30;100.00;98752.44;6273265;28;20037;-83
2023/01/20 13:49:13;;;;;;;3.35;2.30;;;;;;;3.33;100.00;98744.53;6273098;28;20044;-83
2023/01/20 13:52:15;;;;;;;2.65;2.03;;;;;;;3.15;100.00;98741.16;6272867;28;20059;-82
2023/01/20 13:55:40;;;;;;;3.30;2.90;;;;;;;3.11;100.00;98739.66;6272953;28;20037;-82
2023/01/20 13:58:41;;;;;;;3.28;2.17;;;;;;;3.02;100.00;98730.66;6272991;28;20041;-83
2023/01/20 14:01:42;;;;;;;3.05;2.45;;;;;;;3.12;100.00;98731.03;6272916;28;20041;-87
2023/01/20 14:04:46;;;;;;;4.22;2.28;;;;;;;3.15;100.00;98723.97;6271955;28;20128;-82
2023/01/20 14:07:47;;;;;;;5.53;3.08;;;;;;;3.20;100.00;98718.56;6272352;28;20063;-82
2023/01/20 14:10:48;;;;;;;3.90;1.75;;;;;;;3.03;100.00;98714.28;6273816;28;20037;-82
2023/01/20 14:13:57;;;;;;;4.07;2.63;;;;;;;3.15;100.00;98718.81;6272349;28;20056;-82
2023/01/20 14:17:00;;;;;;;7.95;2.60;;;;;;;3.00;100.00;98717.84;6272463;28;20110;-82
2023/01/20 14:20:01;;;;;;;3.35;2.03;;;;;;;2.99;100.00;98723.09;6272210;28;20487;-83
2023/01/20 14:23:41;;;;;;;4.88;2.78;;;;;;;3.13;100.00;98715.50;6272155;28;20037;-87
2023/01/20 14:26:44;;;;;;;2.53;1.70;;;;;;;2.98;100.00;98705.94;6246706;28;20038;-88
2023/01/20 14:29:47;;;;;;;4.65;2.88;;;;;;;2.86;100.00;98707.41;6246895;28;20076;-87
2023/01/20 14:32:50;;;;;;;3.22;2.40;;;;;;;3.01;100.00;98700.66;6273400;28;20475;-87
2023/01/20 14:35:51;;;;;;;6.50;4.28;;;;;;;2.99;100.00;98715.38;6272647;28;20067;-87
2023/01/20 14:38:57;;;;;;;5.43;2.30;;;;;;;2.98;100.00;98717.09;6272456;28;20041;-87
2023/01/20 14:42:02;;;;;;;3.65;1.88;;;;;;;2.95;100.00;98709.53;6271960;28;20099;-87
2023/01/20 14:45:22;;;;;;;8.10;3.45;;;;;;;3.05;100.00;98703.88;6271367;28;20068;-87
2023/01/20 14:48:23;;;;;;;7.70;2.58;;;;;;;3.16;100.00;98707.59;6272652;28;20135;-85